Time;durP1;ratioP1;P1;durP2;ratioP2;P2;SDS_P1;SDS_P2;PMS_P1;PMS_P2;Temp;Humidity;BMP_temperature;BMP_pressure;BME280_temperature;BME280_humidity;BME280_pressure;Samples;Min_cycle;Max_cycle;Signal;HPM_P1;HPM_P2
2022/05/15 00:02:08;;;;;;;3.38;2.80;;;23.90;50.50;;;;;;4992204;28;20417;-65
2022/05/15 00:04:34;;;;;;;4.60;2.90;;;23.90;50.30;;;;;;4991893;28;20804;-65
2022/05/15 00:07:00;;;;;;;4.63;2.95;;;23.90;50.50;;;;;;4991532;28;20398;-65
2022/05/15 00:09:25;;;;;;;4.07;3.00;;;23.90;50.50;;;;;;4991496;28;20391;-65
2022/05/15 00:11:51;;;;;;;3.47;2.85;;;23.90;50.30;;;;;;4991606;28;20818;-65
2022/05/15 00:14:17;;;;;;;4.17;2.90;;;23.90;50.40;;;;;;4991833;28;20418;-65
2022/05/15 00:16:42;;;;;;;3.30;2.80;;;23.90;50.30;;;;;;4991771;28;20422;-65
2022/05/15 00:19:09;;;;;;;4.63;2.80;;;23.90;50.40;;;;;;4991594;28;20399;-64
2022/05/15 00:21:36;;;;;;;5.45;3.00;;;23.90;50.40;;;;;;4991172;28;20894;-65
2022/05/15 00:24:06;;;;;;;4.77;3.00;;;23.90;50.40;;;;;;4991260;28;20479;-65
2022/05/15 00:26:33;;;;;;;3.75;2.92;;;23.80;50.30;;;;;;4991668;28;20390;-65
2022/05/15 00:28:58;;;;;;;3.40;2.80;;;23.90;50.40;;;;;;4991604;28;20414;-65
2022/05/15 00:31:25;;;;;;;4.05;3.00;;;23.90;51.00;;;;;;4991284;28;20743;-65
2022/05/15 00:33:51;;;;;;;4.65;3.08;;;23.90;50.30;;;;;;4991535;28;20406;-65
2022/05/15 00:36:17;;;;;;;5.93;3.05;;;23.80;50.30;;;;;;5006727;28;20403;-65
2022/05/15 00:38:43;;;;;;;3.72;3.00;;;23.80;50.30;;;;;;4991600;28;20521;-65
2022/05/15 00:41:09;;;;;;;4.10;3.15;;;23.80;50.30;;;;;;5006507;28;20481;-64
2022/05/15 00:43:55;;;;;;;4.40;3.00;;;23.80;50.30;;;;;;5006486;28;20462;-64
2022/05/15 00:46:33;;;;;;;3.47;2.72;;;23.80;50.20;;;;;;4991557;28;20937;-65
2022/05/15 00:49:02;;;;;;;3.53;2.83;;;23.80;50.20;;;;;;4991527;28;20521;-65
2022/05/15 00:51:36;;;;;;;3.40;2.90;;;23.80;50.20;;;;;;4990942;28;20398;-65
2022/05/15 00:54:11;;;;;;;4.18;3.30;;;23.80;50.20;;;;;;4991359;28;20561;-65
2022/05/15 00:56:39;;;;;;;3.63;2.75;;;23.80;50.20;;;;;;5007895;28;20391;-65
2022/05/15 00:59:13;;;;;;;3.35;2.85;;;23.80;50.20;;;;;;4994867;28;20754;-65
2022/05/15 01:01:39;;;;;;;3.30;2.90;;;23.80;50.20;;;;;;4994704;28;20421;-65
2022/05/15 01:04:05;;;;;;;3.30;2.90;;;23.70;50.10;;;;;;5009890;28;20406;-65
2022/05/15 01:06:31;;;;;;;5.43;2.88;;;23.70;50.20;;;;;;4994600;28;20401;-65
2022/05/15 01:09:00;;;;;;;3.58;2.88;;;23.70;50.10;;;;;;4994798;28;20961;-65
2022/05/15 01:11:25;;;;;;;4.43;2.72;;;23.70;50.10;;;;;;4994130;28;20391;-65
2022/05/15 01:13:52;;;;;;;3.70;2.80;;;23.70;50.00;;;;;;4994562;28;20413;-65
2022/05/15 01:16:26;;;;;;;3.35;2.67;;;23.70;50.00;;;;;;4994724;28;20488;-64
2022/05/15 01:18:57;;;;;;;3.50;2.72;;;23.70;50.10;;;;;;4994349;28;20391;-65
2022/05/15 01:21:33;;;;;;;4.03;3.03;;;23.70;50.00;;;;;;4993997;28;20480;-64
2022/05/15 01:24:00;;;;;;;4.18;3.20;;;23.70;50.00;;;;;;4994107;28;20894;-65
2022/05/15 01:26:27;;;;;;;3.63;3.07;;;23.70;50.10;;;;;;4994236;28;20491;-64
2022/05/15 01:28:53;;;;;;;3.93;2.90;;;23.70;50.00;;;;;;4993974;28;20474;-65
2022/05/15 01:31:20;;;;;;;3.72;2.90;;;23.70;49.90;;;;;;4993630;28;20732;-64
2022/05/15 01:33:48;;;;;;;3.60;3.13;;;23.70;49.90;;;;;;4993857;28;20402;-64
2022/05/15 01:36:14;;;;;;;4.13;3.20;;;23.70;50.00;;;;;;4994038;28;20887;-65
2022/05/15 01:38:40;;;;;;;3.75;3.15;;;23.70;50.00;;;;;;4993917;28;20445;-65
2022/05/15 01:41:07;;;;;;;3.20;2.80;;;23.70;49.80;;;;;;4993978;28;20429;-64
2022/05/15 01:43:33;;;;;;;3.40;2.93;;;23.70;49.90;;;;;;4993699;28;20391;-65
2022/05/15 01:45:58;;;;;;;3.47;2.88;;;23.60;50.40;;;;;;4993912;28;20449;-64
2022/05/15 01:48:25;;;;;;;3.78;3.08;;;23.60;49.90;;;;;;4993502;28;20886;-64
2022/05/15 01:50:51;;;;;;;3.63;2.83;;;23.60;49.80;;;;;;4993454;28;20470;-65
2022/05/15 01:53:17;;;;;;;4.00;2.97;;;23.60;49.80;;;;;;4993541;28;20485;-64
2022/05/15 01:55:42;;;;;;;3.70;2.83;;;23.60;49.90;;;;;;4993561;28;20899;-65
2022/05/15 01:58:10;;;;;;;3.65;3.00;;;23.60;49.80;;;;;;4993721;28;20390;-65
2022/05/15 02:00:36;;;;;;;3.85;2.83;;;23.60;49.80;;;;;;4993546;28;20497;-65
2022/05/15 02:03:02;;;;;;;3.97;3.00;;;23.60;49.90;;;;;;4993756;28;20437;-65
2022/05/15 02:05:28;;;;;;;3.25;2.90;;;23.60;49.80;;;;;;4993359;28;20402;-65
2022/05/15 02:07:54;;;;;;;4.80;3.20;;;23.60;49.90;;;;;;4992522;28;20403;-65
2022/05/15 02:10:20;;;;;;;3.55;2.97;;;23.60;49.80;;;;;;4993594;28;20478;-64
2022/05/15 02:12:45;;;;;;;4.45;2.88;;;23.60;49.80;;;;;;4993368;28;20501;-65
2022/05/15 02:15:12;;;;;;;3.63;2.88;;;23.60;49.70;;;;;;4993272;28;20418;-65
2022/05/15 02:17:38;;;;;;;3.90;3.10;;;23.60;49.80;;;;;;4993250;28;20394;-64
2022/05/15 02:20:06;;;;;;;3.53;2.95;;;23.60;49.70;;;;;;5008560;28;20409;-65
2022/05/15 02:22:31;;;;;;;3.72;3.10;;;23.50;49.70;;;;;;4993388;28;20449;-65
2022/05/15 02:24:57;;;;;;;4.63;2.93;;;23.60;49.80;;;;;;4993315;28;20406;-65
2022/05/15 02:27:23;;;;;;;3.85;3.00;;;23.60;49.80;;;;;;5007948;28;20395;-64
2022/05/15 02:29:48;;;;;;;3.10;2.73;;;23.50;49.70;;;;;;4993213;28;20476;-64
2022/05/15 02:32:14;;;;;;;3.60;3.20;;;23.50;49.80;;;;;;5008261;28;20391;-64
2022/05/15 02:34:40;;;;;;;3.97;2.90;;;23.50;49.70;;;;;;4993026;28;20429;-64
2022/05/15 02:37:05;;;;;;;3.17;2.70;;;23.50;49.70;;;;;;4993135;28;20888;-64
2022/05/15 02:39:31;;;;;;;4.30;3.00;;;23.60;49.80;;;;;;4992657;28;20438;-65
2022/05/15 02:41:57;;;;;;;3.37;2.90;;;23.50;49.70;;;;;;4993122;28;20918;-65
2022/05/15 02:44:22;;;;;;;3.65;2.80;;;23.50;49.80;;;;;;5008037;28;20890;-64
2022/05/15 02:46:48;;;;;;;3.33;2.87;;;23.50;49.70;;;;;;4992989;28;20402;-64
2022/05/15 02:51:58;;;;;;;3.67;2.80;;;23.50;49.70;;;;;;4992892;28;20870;-65
2022/05/15 02:54:23;;;;;;;3.80;2.90;;;23.50;49.70;;;;;;4992784;28;20964;-65
2022/05/15 02:56:49;;;;;;;3.00;2.70;;;23.50;49.60;;;;;;4992752;28;20398;-65
2022/05/15 02:59:15;;;;;;;3.60;3.05;;;23.50;49.70;;;;;;4992602;28;20445;-65
2022/05/15 03:01:41;;;;;;;3.17;2.80;;;23.50;49.70;;;;;;4991826;28;20790;-65
2022/05/15 03:04:06;;;;;;;3.87;2.77;;;23.50;49.60;;;;;;4992122;28;20394;-65
2022/05/15 03:06:32;;;;;;;4.30;3.10;;;23.50;49.70;;;;;;4992100;28;20393;-65
2022/05/15 03:08:58;;;;;;;5.87;2.90;;;23.50;50.00;;;;;;4992422;28;20407;-64
2022/05/15 03:11:24;;;;;;;6.53;2.80;;;23.40;50.70;;;;;;4991867;28;20386;-65
2022/05/15 03:13:50;;;;;;;3.58;3.03;;;23.40;50.20;;;;;;4992393;28;20445;-64
2022/05/15 03:16:18;;;;;;;7.20;3.30;;;23.50;50.30;;;;;;4992492;28;20398;-64
2022/05/15 03:18:49;;;;;;;13.27;3.50;;;23.40;50.90;;;;;;4991995;28;20421;-64
2022/05/15 03:21:31;;;;;;;6.17;3.30;;;23.40;51.30;;;;;;4992279;28;20394;-65
2022/05/15 03:24:04;;;;;;;6.50;3.40;;;23.50;51.80;;;;;;4992426;28;20449;-65
2022/05/15 03:26:32;;;;;;;6.03;3.00;;;23.50;52.10;;;;;;4992415;28;20481;-64
2022/05/15 03:28:58;;;;;;;6.05;3.13;;;23.50;51.20;;;;;;4992296;28;20394;-64
2022/05/15 03:31:24;;;;;;;7.40;3.10;;;23.50;52.80;;;;;;4991825;28;20390;-64
2022/05/15 03:33:49;;;;;;;7.53;3.10;;;23.40;50.10;;;;;;4992133;28;20469;-65
2022/05/15 03:36:16;;;;;;;9.27;3.30;;;23.40;50.50;;;;;;4992292;28;20478;-64
2022/05/15 03:38:43;;;;;;;6.47;3.10;;;23.40;50.50;;;;;;4992216;28;20493;-65
2022/05/15 03:41:10;;;;;;;7.78;3.10;;;23.40;50.60;;;;;;4992155;28;20948;-64
2022/05/15 03:43:36;;;;;;;6.95;3.20;;;23.40;50.80;;;;;;5006797;28;20465;-64
2022/05/15 03:46:03;;;;;;;6.88;3.20;;;23.40;50.90;;;;;;4992128;28;20405;-64
2022/05/15 03:48:29;;;;;;;7.85;3.20;;;23.50;51.10;;;;;;4992056;28;20394;-64
2022/05/15 03:50:55;;;;;;;6.77;3.30;;;23.50;50.90;;;;;;5007184;28;20399;-64
2022/05/15 03:53:21;;;;;;;7.32;3.30;;;23.50;51.30;;;;;;4991699;28;20394;-65
2022/05/15 03:55:46;;;;;;;9.82;3.20;;;23.50;51.40;;;;;;4991704;28;20399;-65
2022/05/15 03:58:12;;;;;;;6.70;3.20;;;23.50;51.10;;;;;;4991967;28;20554;-64
2022/05/15 04:00:38;;;;;;;6.60;3.15;;;23.50;51.10;;;;;;4992161;28;20445;-65
2022/05/15 04:03:03;;;;;;;6.97;3.30;;;23.50;51.00;;;;;;4991903;28;20449;-64
2022/05/15 04:05:29;;;;;;;6.37;3.43;;;23.50;51.10;;;;;;4991545;28;20466;-64
2022/05/15 04:07:57;;;;;;;6.07;3.13;;;23.50;51.30;;;;;;4991874;28;20395;-65
2022/05/15 04:10:26;;;;;;;10.45;3.60;;;23.50;51.90;;;;;;4991868;28;20448;-64
2022/05/15 04:12:52;;;;;;;7.40;3.50;;;23.50;51.30;;;;;;4991642;28;20409;-64
2022/05/15 04:15:18;;;;;;;12.63;3.90;;;23.50;51.40;;;;;;4991573;28;20422;-64
2022/05/15 04:17:46;;;;;;;17.40;3.85;;;23.50;51.00;;;;;;4991289;28;20758;-64
2022/05/15 04:20:14;;;;;;;22.00;4.57;;;23.50;51.10;;;;;;4991221;28;20398;-63
2022/05/15 04:22:40;;;;;;;19.13;3.72;;;23.50;50.90;;;;;;4991605;28;20383;-64
2022/05/15 04:25:06;;;;;;;13.23;3.80;;;23.50;50.80;;;;;;4991656;28;20426;-64
2022/05/15 04:27:32;;;;;;;11.20;3.75;;;23.50;50.50;;;;;;4991152;28;20461;-64
2022/05/15 04:29:58;;;;;;;11.77;3.97;;;23.50;50.20;;;;;;4991400;28;20414;-64
2022/05/15 04:32:24;;;;;;;8.52;4.03;;;23.40;50.20;;;;;;4994298;28;20414;-64
2022/05/15 04:34:49;;;;;;;7.60;3.70;;;23.40;49.60;;;;;;4995232;28;20422;-64
2022/05/15 04:37:15;;;;;;;5.83;3.80;;;23.40;49.30;;;;;;4995369;28;20386;-64
2022/05/15 04:39:41;;;;;;;7.25;3.67;;;23.40;49.10;;;;;;4994806;28;20422;-64
2022/05/15 04:42:07;;;;;;;9.75;3.58;;;23.40;49.00;;;;;;4995185;28;20837;-64
2022/05/15 04:44:33;;;;;;;9.00;4.30;;;23.40;48.80;;;;;;4995140;28;20940;-64
2022/05/15 04:46:59;;;;;;;11.83;4.13;;;23.30;48.90;;;;;;4994973;28;20426;-64
2022/05/15 04:49:25;;;;;;;8.93;4.00;;;23.30;48.90;;;;;;4994853;28;20477;-64
2022/05/15 04:51:50;;;;;;;9.73;4.10;;;23.30;48.90;;;;;;4994813;28;20402;-64
2022/05/15 04:54:16;;;;;;;9.02;3.90;;;23.30;49.10;;;;;;4995032;28;20902;-64
2022/05/15 04:56:42;;;;;;;10.03;4.00;;;23.30;49.20;;;;;;4994995;28;20409;-64
2022/05/15 04:59:07;;;;;;;6.90;3.92;;;23.40;49.20;;;;;;4994983;28;20401;-64
2022/05/15 05:01:33;;;;;;;8.17;3.80;;;23.30;49.20;;;;;;4994479;28;20391;-64
2022/05/15 05:03:59;;;;;;;6.40;3.60;;;23.30;49.20;;;;;;4994575;28;20391;-64
2022/05/15 05:06:26;;;;;;;6.32;3.60;;;23.30;49.30;;;;;;4994927;28;20779;-64
2022/05/15 05:08:52;;;;;;;5.65;3.42;;;23.40;49.30;;;;;;4994806;28;20390;-64
2022/05/15 05:11:19;;;;;;;6.13;3.50;;;23.40;49.50;;;;;;4994595;28;20728;-64
2022/05/15 05:13:44;;;;;;;7.00;3.30;;;23.40;49.50;;;;;;4994333;28;20491;-64
2022/05/15 05:16:11;;;;;;;6.78;3.80;;;23.40;49.60;;;;;;4994699;28;20866;-64
2022/05/15 05:18:37;;;;;;;4.60;3.10;;;23.30;49.50;;;;;;4994559;28;20399;-64
2022/05/15 05:21:03;;;;;;;6.22;3.35;;;23.30;49.60;;;;;;4994539;28;20481;-64
2022/05/15 05:23:29;;;;;;;5.38;3.33;;;23.40;49.70;;;;;;4994248;28;20402;-64
2022/05/15 05:25:55;;;;;;;6.35;3.40;;;23.30;49.70;;;;;;4994460;28;20402;-64
2022/05/15 05:28:21;;;;;;;4.43;3.13;;;23.40;49.80;;;;;;4994599;28;20457;-64
2022/05/15 05:30:48;;;;;;;5.03;3.10;;;23.40;49.80;;;;;;4994405;28;20788;-64
2022/05/15 05:33:13;;;;;;;4.72;3.08;;;23.40;49.80;;;;;;5009307;28;20398;-63
2022/05/15 05:35:40;;;;;;;4.30;3.20;;;23.40;49.90;;;;;;4993271;28;20459;-64
2022/05/15 05:38:06;;;;;;;5.38;3.13;;;23.40;49.90;;;;;;4994029;28;20418;-64
2022/05/15 05:40:32;;;;;;;4.25;3.17;;;23.40;49.90;;;;;;4994483;28;20786;-64
2022/05/15 05:42:58;;;;;;;5.70;3.17;;;23.40;49.90;;;;;;4993872;28;20946;-64
2022/05/15 05:45:24;;;;;;;4.30;3.10;;;23.40;49.90;;;;;;4993823;28;20482;-64
2022/05/15 05:47:50;;;;;;;4.73;3.10;;;23.40;49.90;;;;;;4993817;28;20720;-64
2022/05/15 05:50:18;;;;;;;4.22;2.92;;;23.40;49.90;;;;;;4994043;28;20867;-64
2022/05/15 05:52:44;;;;;;;5.53;3.00;;;23.40;49.90;;;;;;4993951;28;20481;-64
2022/05/15 05:55:13;;;;;;;5.38;3.20;;;23.40;49.90;;;;;;4993865;28;20505;-64
2022/05/15 05:57:40;;;;;;;4.00;2.92;;;23.40;50.00;;;;;;4993513;28;20386;-64
2022/05/15 06:00:09;;;;;;;4.70;3.00;;;23.40;50.00;;;;;;4993861;28;20902;-64
2022/05/15 06:02:35;;;;;;;4.60;3.08;;;23.50;50.10;;;;;;4993887;28;20470;-64
2022/05/15 06:05:01;;;;;;;3.43;2.80;;;23.40;50.00;;;;;;4993296;28;20486;-64
2022/05/15 06:07:28;;;;;;;5.95;3.20;;;23.50;50.10;;;;;;4993419;28;20422;-64
2022/05/15 06:09:54;;;;;;;4.47;2.80;;;23.50;50.40;;;;;;4993468;28;20448;-63
2022/05/15 06:12:22;;;;;;;6.28;2.83;;;23.50;50.40;;;;;;4993474;28;20410;-63
2022/05/15 06:14:49;;;;;;;5.78;2.90;;;23.50;50.30;;;;;;4993515;28;20909;-64
2022/05/15 06:17:19;;;;;;;5.43;3.17;;;23.60;50.30;;;;;;4993552;28;20517;-64
2022/05/15 06:19:44;;;;;;;6.00;3.10;;;23.50;50.20;;;;;;4992992;28;20456;-63
2022/05/15 06:22:10;;;;;;;4.43;2.87;;;23.60;50.30;;;;;;4993472;28;20925;-64
2022/05/15 06:24:36;;;;;;;4.90;3.00;;;23.60;50.10;;;;;;4993700;28;20406;-65
2022/05/15 06:27:03;;;;;;;4.70;2.72;;;23.60;50.20;;;;;;4993295;28;20871;-64
2022/05/15 06:29:29;;;;;;;5.47;2.85;;;23.60;50.10;;;;;;4993125;28;20441;-65
2022/05/15 06:31:54;;;;;;;4.28;3.00;;;23.60;50.00;;;;;;4992996;28;20387;-64
2022/05/15 06:34:21;;;;;;;4.10;2.80;;;23.60;50.10;;;;;;5008224;28;20419;-65
2022/05/15 06:36:47;;;;;;;5.18;2.83;;;23.60;50.20;;;;;;5008214;28;20490;-64
2022/05/15 06:39:14;;;;;;;4.13;2.90;;;23.60;50.10;;;;;;4993157;28;20461;-64
2022/05/15 06:41:39;;;;;;;3.97;3.17;;;23.60;50.10;;;;;;4992578;28;20398;-64
2022/05/15 06:44:05;;;;;;;6.10;2.80;;;23.60;50.10;;;;;;4993049;28;20395;-64
2022/05/15 06:46:31;;;;;;;3.97;2.85;;;23.60;50.20;;;;;;4993058;28;20441;-64
2022/05/15 06:48:57;;;;;;;3.33;2.80;;;23.70;50.10;;;;;;4992880;28;20520;-64
2022/05/15 06:51:23;;;;;;;3.45;2.80;;;23.70;50.10;;;;;;4992511;28;20398;-64
2022/05/15 06:53:50;;;;;;;4.00;2.97;;;23.70;50.20;;;;;;4991317;28;20415;-63
2022/05/15 06:59:02;;;;;;;3.88;2.80;;;23.70;50.30;;;;;;4993016;28;20438;-64
2022/05/15 07:01:28;;;;;;;4.00;2.92;;;23.70;50.30;;;;;;4992340;28;20405;-64
2022/05/15 07:03:54;;;;;;;4.40;2.80;;;23.70;50.20;;;;;;4987774;28;20406;-64
2022/05/15 07:06:20;;;;;;;3.80;2.75;;;23.70;50.00;;;;;;4991990;28;20398;-63
2022/05/15 07:08:46;;;;;;;3.60;2.80;;;23.70;50.30;;;;;;4992150;28;20411;-63
2022/05/15 07:11:12;;;;;;;3.90;2.90;;;23.70;50.10;;;;;;4992378;28;20448;-64
2022/05/15 07:13:39;;;;;;;3.38;2.80;;;23.80;50.30;;;;;;4991757;28;20926;-64
2022/05/15 07:16:05;;;;;;;3.20;2.80;;;23.80;50.30;;;;;;4992383;28;20394;-63
2022/05/15 07:18:30;;;;;;;3.45;2.60;;;23.80;50.30;;;;;;4992214;28;20727;-64
2022/05/15 07:20:56;;;;;;;3.80;2.60;;;23.80;50.30;;;;;;4992226;28;20410;-63
2022/05/15 07:23:22;;;;;;;3.28;2.58;;;23.80;50.40;;;;;;4992186;28;20878;-64
2022/05/15 07:25:49;;;;;;;3.90;2.63;;;23.80;50.40;;;;;;4991670;28;20434;-64
2022/05/15 07:28:16;;;;;;;3.17;2.70;;;23.80;49.90;;;;;;4992264;28;20461;-64
2022/05/15 07:30:42;;;;;;;3.10;2.63;;;23.80;50.30;;;;;;4992018;28;20441;-64
2022/05/15 07:33:08;;;;;;;3.87;2.80;;;23.80;50.30;;;;;;4992185;28;20470;-64
2022/05/15 07:35:35;;;;;;;3.55;2.90;;;23.80;50.30;;;;;;4991650;28;20421;-64
2022/05/15 07:38:01;;;;;;;3.20;2.70;;;23.80;50.40;;;;;;4991831;28;20414;-63
2022/05/15 07:40:27;;;;;;;3.33;2.80;;;23.90;50.40;;;;;;4991986;28;20481;-64
2022/05/15 07:42:53;;;;;;;3.37;2.67;;;23.90;50.40;;;;;;4992017;28;20498;-64
2022/05/15 07:45:19;;;;;;;3.67;2.70;;;23.90;50.30;;;;;;4991912;28;20398;-64
2022/05/15 07:47:45;;;;;;;3.22;2.70;;;23.90;50.30;;;;;;5006585;28;21045;-63
2022/05/15 07:50:12;;;;;;;3.08;2.60;;;23.90;50.20;;;;;;4991805;28;20390;-63
2022/05/15 07:52:38;;;;;;;3.35;2.70;;;23.90;50.20;;;;;;4992032;28;20481;-64
2022/05/15 07:55:06;;;;;;;3.00;2.70;;;23.90;50.20;;;;;;4990410;28;20450;-63
2022/05/15 07:57:35;;;;;;;3.15;2.60;;;23.90;50.20;;;;;;4991603;28;20445;-64
2022/05/15 08:00:05;;;;;;;3.47;2.65;;;23.90;50.20;;;;;;4991527;28;20750;-63
2022/05/15 08:02:30;;;;;;;3.80;2.83;;;23.90;50.20;;;;;;4992026;28;20383;-64
2022/05/15 08:10:25;;;;;;;3.38;2.75;;;23.90;50.10;;;;;;4995677;28;20472;-64
2022/05/15 08:12:51;;;;;;;3.00;2.70;;;23.90;50.10;;;;;;4995440;28;20438;-64
2022/05/15 08:15:17;;;;;;;2.97;2.67;;;23.90;50.10;;;;;;4995466;28;20491;-64
2022/05/15 08:17:44;;;;;;;3.13;2.58;;;24.00;50.10;;;;;;4995190;28;20442;-64
2022/05/15 08:25:42;;;;;;;3.60;2.75;;;24.00;49.90;;;;;;4994999;28;20432;-64
2022/05/15 08:28:07;;;;;;;2.70;2.50;;;24.00;49.80;;;;;;4995473;28;20406;-64
2022/05/15 08:30:35;;;;;;;3.10;2.80;;;24.00;49.60;;;;;;4995382;28;20402;-64
2022/05/15 08:33:01;;;;;;;3.20;2.90;;;24.00;49.70;;;;;;5010410;28;20448;-64
2022/05/15 08:35:29;;;;;;;3.55;2.80;;;24.00;49.60;;;;;;4995256;28;20429;-64
2022/05/15 08:37:55;;;;;;;3.13;2.83;;;24.00;49.60;;;;;;4994802;28;20382;-64
2022/05/15 08:40:25;;;;;;;3.00;2.70;;;24.00;49.40;;;;;;4995237;28;20941;-64
2022/05/15 08:42:56;;;;;;;3.15;2.58;;;24.00;49.40;;;;;;4995203;28;20420;-64
2022/05/15 08:45:26;;;;;;;3.15;2.70;;;24.00;49.40;;;;;;4995236;28;20485;-64
2022/05/15 08:48:12;;;;;;;2.67;2.47;;;24.00;49.30;;;;;;4994543;28;20405;-64
2022/05/15 08:50:52;;;;;;;2.92;2.58;;;24.00;49.30;;;;;;4995019;28;20395;-64
2022/05/15 08:53:27;;;;;;;3.65;2.70;;;24.00;49.30;;;;;;4995026;28;20402;-63
2022/05/15 08:55:57;;;;;;;3.53;2.60;;;24.00;49.30;;;;;;4994452;28;20497;-64
2022/05/15 08:58:48;;;;;;;4.05;2.83;;;24.00;49.30;;;;;;4994918;28;20398;-64
2022/05/15 09:01:19;;;;;;;2.90;2.60;;;24.00;49.30;;;;;;4994776;28;20395;-64
2022/05/15 09:03:44;;;;;;;3.58;2.80;;;24.00;49.30;;;;;;4994320;28;20391;-63
2022/05/15 09:06:22;;;;;;;2.90;2.60;;;24.00;49.40;;;;;;4994446;28;20871;-64
2022/05/15 09:09:26;;;;;;;3.03;2.72;;;24.00;49.30;;;;;;4994757;28;20394;-64
2022/05/15 09:12:10;;;;;;;3.08;2.78;;;24.00;49.40;;;;;;4993882;28;20497;-64
2022/05/15 09:14:59;;;;;;;3.35;2.60;;;24.10;49.50;;;;;;4994753;28;20414;-64
2022/05/15 09:17:43;;;;;;;3.70;2.70;;;24.10;49.30;;;;;;4993770;28;20396;-64
2022/05/15 09:20:12;;;;;;;2.97;2.60;;;24.10;49.40;;;;;;4994408;28;20390;-64
2022/05/15 09:22:47;;;;;;;3.20;2.60;;;24.10;49.30;;;;;;4993885;28;20426;-63
2022/05/15 09:25:21;;;;;;;3.10;2.80;;;24.10;49.30;;;;;;4994150;28;20396;-64
2022/05/15 09:28:00;;;;;;;2.97;2.67;;;24.10;49.20;;;;;;4993524;28;20482;-64
2022/05/15 09:30:39;;;;;;;3.13;2.50;;;24.00;49.30;;;;;;4994447;28;20886;-63
2022/05/15 09:33:06;;;;;;;3.10;2.72;;;24.10;49.40;;;;;;4994197;28;20397;-64
2022/05/15 09:35:33;;;;;;;2.83;2.53;;;24.10;49.30;;;;;;4994388;28;20485;-64
2022/05/15 09:43:40;;;;;;;2.83;2.50;;;24.10;49.30;;;;;;4994253;28;20885;-63
2022/05/15 09:46:15;;;;;;;3.33;2.72;;;24.10;49.40;;;;;;5008866;28;20464;-64
2022/05/15 09:48:56;;;;;;;3.40;2.70;;;24.10;49.20;;;;;;4993908;28;20394;-64
2022/05/15 09:51:43;;;;;;;3.25;2.72;;;24.10;49.20;;;;;;4993911;28;20383;-64
2022/05/15 09:54:27;;;;;;;2.85;2.55;;;24.10;49.20;;;;;;4987052;28;20505;-64
2022/05/15 09:57:07;;;;;;;2.97;2.63;;;24.10;49.10;;;;;;4993894;28;20398;-64
2022/05/15 09:59:32;;;;;;;3.08;2.60;;;24.20;49.20;;;;;;4978317;28;20416;-64
2022/05/15 10:01:58;;;;;;;3.03;2.70;;;24.10;49.20;;;;;;4974030;28;20403;-64
2022/05/15 10:04:37;;;;;;;2.95;2.50;;;24.20;49.20;;;;;;4979718;28;20414;-64
2022/05/15 10:07:06;;;;;;;2.83;2.58;;;24.20;49.20;;;;;;4985612;28;20401;-64
2022/05/15 10:09:38;;;;;;;3.30;2.63;;;24.10;49.20;;;;;;4981801;28;20427;-64
2022/05/15 10:12:06;;;;;;;4.07;2.63;;;24.10;49.10;;;;;;4981628;28;20547;-64
2022/05/15 10:14:46;;;;;;;3.08;2.42;;;24.20;49.10;;;;;;4982472;28;20947;-64
2022/05/15 10:17:13;;;;;;;2.70;2.50;;;24.20;49.20;;;;;;4982575;28;20423;-63
2022/05/15 10:19:46;;;;;;;3.07;2.60;;;24.20;49.00;;;;;;4984267;28;20480;-64
2022/05/15 10:22:31;;;;;;;3.47;2.70;;;24.20;49.00;;;;;;5005692;28;20417;-64
2022/05/15 10:25:13;;;;;;;3.00;2.50;;;24.20;48.90;;;;;;4985168;28;21353;-64
2022/05/15 10:27:43;;;;;;;3.08;2.78;;;24.10;48.80;;;;;;4983406;28;20410;-64
2022/05/15 10:30:19;;;;;;;3.38;2.42;;;24.20;48.90;;;;;;4982029;28;20477;-64
2022/05/15 10:32:53;;;;;;;3.03;2.72;;;24.20;48.90;;;;;;4981385;28;20392;-64
2022/05/15 10:35:41;;;;;;;2.80;2.50;;;24.20;48.80;;;;;;4983852;28;20432;-64
2022/05/15 10:38:24;;;;;;;3.22;2.58;;;24.20;48.80;;;;;;4981338;28;20410;-64
2022/05/15 10:41:00;;;;;;;3.05;2.67;;;24.10;48.70;;;;;;4982090;28;20403;-63
2022/05/15 10:43:44;;;;;;;3.20;2.77;;;24.20;48.70;;;;;;4981374;28;20526;-64
2022/05/15 10:46:43;;;;;;;2.90;2.57;;;24.20;48.70;;;;;;4982839;28;20473;-64
2022/05/15 10:49:24;;;;;;;2.67;2.40;;;24.10;48.60;;;;;;4982943;28;20882;-63
2022/05/15 10:52:28;;;;;;;2.92;2.63;;;24.20;48.60;;;;;;5107724;27;20783;-63
2022/05/15 10:58:31;;;;;;;3.45;2.63;;;24.20;48.50;;;;;;5106275;28;20426;-64
2022/05/15 11:01:19;;;;;;;3.25;2.63;;;24.20;48.50;;;;;;5103845;28;20385;-64
2022/05/15 11:04:16;;;;;;;3.38;2.70;;;24.20;48.40;;;;;;5104884;28;20386;-64
2022/05/15 11:07:13;;;;;;;3.20;2.78;;;24.20;48.40;;;;;;5076197;28;20400;-64
2022/05/15 11:09:45;;;;;;;2.90;2.60;;;24.20;48.30;;;;;;5106478;28;20381;-64
2022/05/15 11:12:32;;;;;;;2.93;2.50;;;24.20;48.30;;;;;;5104256;28;20896;-64
2022/05/15 11:15:34;;;;;;;2.97;2.60;;;24.20;48.10;;;;;;5106507;28;20388;-64
2022/05/15 11:18:27;;;;;;;2.90;2.60;;;24.20;48.10;;;;;;5106922;28;20788;-64
2022/05/15 11:21:23;;;;;;;2.78;2.55;;;24.30;48.20;;;;;;5105821;28;20413;-64
2022/05/15 11:23:53;;;;;;;3.05;2.70;;;24.30;48.60;;;;;;5067160;28;20405;-64
2022/05/15 11:26:28;;;;;;;2.67;2.47;;;24.30;48.00;;;;;;5105925;28;20400;-64
2022/05/15 11:29:00;;;;;;;3.38;2.65;;;24.30;48.00;;;;;;5102959;28;20396;-64
2022/05/15 11:31:37;;;;;;;3.00;2.65;;;24.30;48.10;;;;;;5104645;28;20409;-64
2022/05/15 11:34:06;;;;;;;2.88;2.58;;;24.30;48.00;;;;;;5105530;28;20381;-64
2022/05/15 11:36:37;;;;;;;3.30;2.50;;;24.30;47.80;;;;;;5107219;28;20386;-64
2022/05/15 11:39:06;;;;;;;3.00;2.70;;;24.30;47.90;;;;;;5105822;28;20393;-64
2022/05/15 11:41:34;;;;;;;3.08;2.50;;;24.30;47.90;;;;;;5106907;28;20385;-64
2022/05/15 11:44:12;;;;;;;3.33;2.83;;;24.30;47.80;;;;;;5105270;28;20933;-64
2022/05/15 11:46:47;;;;;;;3.03;2.72;;;24.30;47.90;;;;;;5106838;28;20393;-64
2022/05/15 11:49:17;;;;;;;2.70;2.50;;;24.30;47.90;;;;;;5105581;28;20469;-64
2022/05/15 11:51:56;;;;;;;2.97;2.53;;;24.30;47.80;;;;;;5106359;28;20505;-64
2022/05/15 11:54:43;;;;;;;2.95;2.53;;;24.30;47.80;;;;;;5106242;28;20418;-63
2022/05/15 11:57:11;;;;;;;3.15;2.55;;;24.30;47.90;;;;;;5106360;28;20381;-64
2022/05/15 11:59:39;;;;;;;2.92;2.60;;;24.30;47.80;;;;;;5105570;28;20424;-64
2022/05/15 12:02:20;;;;;;;2.63;2.42;;;24.30;47.70;;;;;;5099611;28;20397;-64
2022/05/15 12:04:46;;;;;;;3.00;2.70;;;24.30;47.80;;;;;;5090515;28;20824;-64
2022/05/15 12:07:14;;;;;;;3.00;2.60;;;24.40;47.60;;;;;;5091717;28;20481;-64
2022/05/15 12:09:40;;;;;;;3.63;2.50;;;24.30;47.60;;;;;;5091296;28;20469;-64
2022/05/15 12:12:22;;;;;;;2.90;2.47;;;24.30;47.60;;;;;;5092469;28;20823;-64
2022/05/15 12:15:08;;;;;;;3.37;2.50;;;24.30;47.60;;;;;;5090592;28;20935;-64
2022/05/15 12:17:38;;;;;;;2.65;2.30;;;24.40;47.70;;;;;;5091346;28;20508;-64
2022/05/15 12:20:28;;;;;;;3.00;2.50;;;24.40;48.30;;;;;;5092379;28;20752;-64
2022/05/15 12:22:59;;;;;;;2.55;2.35;;;24.40;47.60;;;;;;5091160;28;20382;-64
2022/05/15 12:25:32;;;;;;;3.10;2.60;;;24.40;47.60;;;;;;5092540;28;20374;-64
2022/05/15 12:28:53;;;;;;;2.90;2.60;;;24.40;47.60;;;;;;5090951;28;20389;-64
2022/05/15 12:31:33;;;;;;;2.78;2.30;;;24.40;47.60;;;;;;5091720;28;20747;-64
2022/05/15 12:34:21;;;;;;;3.20;2.63;;;24.40;47.50;;;;;;5090587;28;20669;-64
2022/05/15 12:36:58;;;;;;;3.05;2.65;;;24.40;47.40;;;;;;5090477;28;20470;-64
2022/05/15 12:39:28;;;;;;;3.15;2.70;;;24.40;47.30;;;;;;5088869;28;20378;-64
2022/05/15 12:42:00;;;;;;;2.83;2.53;;;24.40;47.30;;;;;;5091869;28;20966;-64
2022/05/15 12:44:32;;;;;;;3.35;2.60;;;24.40;47.20;;;;;;5089015;28;20389;-64
2022/05/15 12:47:01;;;;;;;2.58;2.25;;;24.40;47.30;;;;;;5092314;28;20415;-63
2022/05/15 12:49:39;;;;;;;3.00;2.58;;;24.40;47.40;;;;;;5090929;28;20444;-64
2022/05/15 12:52:27;;;;;;;2.70;2.50;;;24.40;47.40;;;;;;5088210;28;20474;-64
2022/05/15 12:55:26;;;;;;;2.50;2.30;;;24.40;47.30;;;;;;5085416;28;20707;-64
2022/05/15 12:57:55;;;;;;;2.90;2.60;;;24.40;47.40;;;;;;5090354;28;20897;-64
2022/05/15 13:00:31;;;;;;;2.85;2.50;;;24.40;47.40;;;;;;5090822;28;20394;-63
2022/05/15 13:03:09;;;;;;;2.80;2.60;;;24.40;47.40;;;;;;5092043;28;20386;-64
2022/05/15 13:05:55;;;;;;;3.70;2.58;;;24.40;47.30;;;;;;5090768;28;20425;-64
2022/05/15 13:08:22;;;;;;;2.90;2.57;;;24.40;47.40;;;;;;5091458;28;20392;-64
2022/05/15 13:11:00;;;;;;;3.55;2.60;;;24.40;47.30;;;;;;5091213;28;20922;-64
2022/05/15 13:13:34;;;;;;;2.78;2.40;;;24.40;47.30;;;;;;5087283;28;20397;-64
2022/05/15 13:16:00;;;;;;;2.83;2.40;;;24.40;47.30;;;;;;5091142;28;20414;-63
2022/05/15 13:18:30;;;;;;;4.07;2.60;;;24.40;47.30;;;;;;5090587;28;20746;-65
2022/05/15 13:21:02;;;;;;;3.88;2.40;;;24.40;47.40;;;;;;5090331;28;20895;-64
2022/05/15 13:23:33;;;;;;;4.72;2.58;;;24.40;47.40;;;;;;5085387;28;20483;-64
2022/05/15 13:26:00;;;;;;;4.53;2.50;;;24.40;47.40;;;;;;5090904;28;20961;-64
2022/05/15 13:28:27;;;;;;;3.33;2.50;;;24.40;47.50;;;;;;5089896;28;20474;-65